Time;durP1;ratioP1;P1;durP2;ratioP2;P2;SDS_P1;SDS_P2;PMS_P1;PMS_P2;Temp;Humidity;BMP_temperature;BMP_pressure;BME280_temperature;BME280_humidity;BME280_pressure;Samples;Min_cycle;Max_cycle;Signal;HPM_P1;HPM_P2
2021/03/04 00:00:44;;;;;;;9.32;5.00;;;;;;;4.17;56.09;93431.00;2061998;69;20172;-75
2021/03/04 00:03:10;;;;;;;7.95;4.55;;;;;;;4.30;57.17;93416.91;2061714;69;20343;-74
2021/03/04 00:05:36;;;;;;;8.50;4.25;;;;;;;4.32;56.56;93419.16;2061719;69;20147;-75
2021/03/04 00:08:03;;;;;;;7.80;4.22;;;;;;;4.29;54.70;93426.56;2061750;69;20145;-75
2021/03/04 00:10:29;;;;;;;6.25;3.65;;;;;;;4.42;54.86;93420.09;2061621;69;20129;-75
2021/03/04 00:12:55;;;;;;;6.25;3.40;;;;;;;3.99;56.06;93412.53;2061483;69;20149;-75
2021/03/04 00:15:23;;;;;;;8.55;4.30;;;;;;;3.93;55.90;93411.94;2061806;69;20536;-76
2021/03/04 00:17:50;;;;;;;8.38;4.25;;;;;;;4.02;55.81;93414.19;2061559;69;20156;-75
2021/03/04 00:20:24;;;;;;;8.50;4.90;;;;;;;3.98;56.04;93411.03;2061285;69;20155;-76
2021/03/04 00:22:49;;;;;;;9.30;5.07;;;;;;;4.02;56.83;93397.47;2061826;69;20152;-75
2021/03/04 00:25:18;;;;;;;9.85;4.97;;;;;;;4.04;55.74;93408.84;2061615;69;20141;-76
2021/03/04 00:27:43;;;;;;;7.38;4.40;;;;;;;3.87;56.64;93400.22;2061641;69;20173;-75
2021/03/04 00:30:16;;;;;;;10.63;4.35;;;;;;;4.08;55.92;93393.25;2061490;69;20168;-76
2021/03/04 00:32:41;;;;;;;8.90;4.40;;;;;;;3.99;56.15;93402.13;2061753;69;20141;-75
2021/03/04 00:35:08;;;;;;;10.32;4.78;;;;;;;4.06;56.41;93406.22;2061288;69;20137;-75
2021/03/04 00:37:34;;;;;;;9.38;4.97;;;;;;;3.81;56.31;93394.81;2061484;69;20556;-76
2021/03/04 00:40:01;;;;;;;10.30;5.30;;;;;;;3.68;56.53;93394.94;2060947;69;20134;-75
2021/03/04 00:42:27;;;;;;;13.27;5.22;;;;;;;3.25;57.95;93385.19;2061733;69;20266;-75
2021/03/04 00:44:53;;;;;;;7.07;4.72;;;;;;;3.73;57.75;93396.81;2061628;69;20174;-75
2021/03/04 00:47:18;;;;;;;10.43;4.65;;;;;;;3.63;58.01;93391.00;2061630;69;20137;-75
2021/03/04 00:49:44;;;;;;;7.60;4.15;;;;;;;3.93;57.14;93387.59;2061635;69;20620;-75
2021/03/04 00:52:09;;;;;;;6.60;3.20;;;;;;;3.86;56.69;93387.59;2061479;69;20598;-74
2021/03/04 00:54:35;;;;;;;5.82;3.55;;;;;;;3.52;57.25;93377.38;2061175;69;20161;-75
2021/03/04 00:57:01;;;;;;;10.70;4.38;;;;;;;3.64;57.53;93375.78;2061352;69;20532;-75
2021/03/04 00:59:26;;;;;;;8.85;4.53;;;;;;;3.43;58.17;93375.09;2061286;69;20142;-75
2021/03/04 01:01:52;;;;;;;9.25;4.28;;;;;;;3.66;57.24;93369.66;2061569;69;20198;-74
2021/03/04 01:04:17;;;;;;;12.32;3.95;;;;;;;3.59;57.06;93371.13;2061181;69;20157;-74
2021/03/04 01:06:43;;;;;;;5.40;2.97;;;;;;;3.65;56.52;93371.69;2061252;69;20643;-74
2021/03/04 01:09:09;;;;;;;7.50;3.85;;;;;;;3.63;57.11;93373.56;2061509;69;20145;-73
2021/03/04 01:11:34;;;;;;;5.25;3.25;;;;;;;3.44;57.75;93374.56;2061410;69;20563;-74
2021/03/04 01:14:00;;;;;;;6.00;3.80;;;;;;;3.34;57.96;93365.22;2061172;69;20161;-74
2021/03/04 01:16:29;;;;;;;7.30;3.90;;;;;;;3.26;58.56;93362.41;2061596;69;20187;-74
2021/03/04 01:18:56;;;;;;;6.68;3.70;;;;;;;3.21;58.85;93359.78;2061825;69;20145;-74
2021/03/04 01:21:21;;;;;;;8.68;4.22;;;;;;;3.41;58.14;93361.00;2063590;69;20160;-74
2021/03/04 01:23:47;;;;;;;6.40;3.45;;;;;;;3.65;57.92;93359.81;2061454;69;20199;-73
2021/03/04 01:26:13;;;;;;;6.95;3.38;;;;;;;3.53;57.76;93348.28;2061534;69;20208;-73
2021/03/04 01:28:38;;;;;;;6.70;3.30;;;;;;;3.42;58.41;93346.53;2063697;69;20164;-73
2021/03/04 01:31:05;;;;;;;7.13;3.80;;;;;;;3.18;58.05;93342.13;2061522;69;20172;-73
2021/03/04 01:33:30;;;;;;;7.93;3.83;;;;;;;3.23;57.85;93335.66;2061609;69;20195;-74
2021/03/04 01:35:56;;;;;;;9.32;4.05;;;;;;;3.36;58.42;93336.84;2060677;69;20157;-74
2021/03/04 01:38:23;;;;;;;9.98;4.43;;;;;;;3.18;57.96;93333.03;2057898;69;20161;-73
2021/03/04 01:40:48;;;;;;;9.10;4.20;;;;;;;3.28;58.44;93325.69;2058220;69;20233;-73
2021/03/04 01:43:14;;;;;;;7.43;3.92;;;;;;;3.16;57.64;93327.25;2058159;69;20150;-74
2021/03/04 01:45:43;;;;;;;6.47;3.60;;;;;;;3.26;58.12;93317.16;2058448;69;20255;-73
2021/03/04 01:48:10;;;;;;;7.00;3.70;;;;;;;3.33;57.89;93327.56;2057728;69;20138;-74
2021/03/04 01:50:35;;;;;;;5.80;3.40;;;;;;;3.33;58.29;93321.25;2057999;69;20154;-73
2021/03/04 01:53:01;;;;;;;5.88;3.58;;;;;;;3.13;58.99;93320.78;2058229;69;20168;-74
2021/03/04 01:55:27;;;;;;;9.40;3.72;;;;;;;3.19;59.39;93315.06;2057875;69;20211;-74
2021/03/04 01:57:55;;;;;;;7.22;3.78;;;;;;;2.97;59.44;93322.69;2058100;69;20217;-74
2021/03/04 02:00:21;;;;;;;6.78;3.70;;;;;;;2.76;59.81;93317.19;2058129;69;20548;-74
2021/03/04 02:02:47;;;;;;;6.45;3.70;;;;;;;2.97;59.82;93314.38;2058013;69;20174;-74
2021/03/04 02:05:16;;;;;;;6.30;3.53;;;;;;;2.96;60.07;93310.09;2057773;69;20633;-74
2021/03/04 02:07:49;;;;;;;8.95;4.10;;;;;;;2.82;59.77;93311.50;2058187;69;20525;-74
2021/03/04 02:10:30;;;;;;;9.20;4.03;;;;;;;2.85;61.17;93310.41;2058095;69;20158;-74
2021/03/04 02:13:33;;;;;;;8.38;3.75;;;;;;;2.89;59.87;93308.03;2058272;69;20237;-74
2021/03/04 02:16:05;;;;;;;8.32;3.53;;;;;;;2.85;59.75;93304.84;2054887;69;20152;-75
2021/03/04 02:18:36;;;;;;;6.53;2.85;;;;;;;2.85;58.98;93304.09;2057440;69;20664;-76
2021/03/04 02:21:39;;;;;;;5.60;3.30;;;;;;;3.20;58.74;93305.41;2057888;69;20149;-74
2021/03/04 02:24:28;;;;;;;6.95;2.92;;;;;;;3.11;58.41;93289.97;2057865;69;20153;-76
2021/03/04 02:27:10;;;;;;;5.35;2.70;;;;;;;3.15;58.92;93290.34;2057871;69;20153;-75
2021/03/04 02:29:44;;;;;;;5.65;2.75;;;;;;;3.24;58.06;93289.84;2057976;69;20137;-75
2021/03/04 02:32:11;;;;;;;8.73;2.97;;;;;;;2.80;59.42;93284.25;2057967;69;20246;-75
2021/03/04 02:34:47;;;;;;;8.93;3.03;;;;;;;3.06;58.35;93290.88;2057737;69;20193;-74
2021/03/04 02:37:17;;;;;;;5.97;2.90;;;;;;;2.96;59.95;93281.53;2057854;69;20177;-74
2021/03/04 02:39:45;;;;;;;6.68;2.65;;;;;;;3.03;59.08;93284.38;2057506;69;20244;-74
2021/03/04 02:42:15;;;;;;;8.32;2.70;;;;;;;2.80;59.48;93280.72;2058184;69;20149;-74
2021/03/04 02:44:41;;;;;;;5.20;2.45;;;;;;;2.87;58.67;93273.69;2058062;69;20673;-74
2021/03/04 02:47:06;;;;;;;7.35;2.80;;;;;;;2.93;58.99;93277.06;2058197;69;20149;-75
2021/03/04 02:49:33;;;;;;;5.65;2.60;;;;;;;2.93;59.23;93280.63;2058131;69;20671;-74
2021/03/04 02:51:59;;;;;;;5.97;3.08;;;;;;;2.75;60.60;93276.78;2057867;69;20154;-74
2021/03/04 02:54:25;;;;;;;5.28;2.65;;;;;;;2.76;60.10;93275.50;2057880;69;20249;-74
2021/03/04 02:56:51;;;;;;;10.10;2.92;;;;;;;2.67;60.13;93264.13;2057683;69;20149;-74
2021/03/04 02:59:18;;;;;;;8.38;2.97;;;;;;;2.77;59.26;93260.28;2057999;69;20145;-74
2021/03/04 03:01:45;;;;;;;7.20;2.47;;;;;;;2.93;58.73;93263.94;2057387;69;20185;-74
2021/03/04 03:04:12;;;;;;;5.88;2.60;;;;;;;2.99;57.95;93264.50;2058135;69;20594;-74
2021/03/04 03:06:40;;;;;;;5.03;2.67;;;;;;;2.96;57.74;93253.72;2056951;69;20161;-74
2021/03/04 03:09:06;;;;;;;7.63;2.80;;;;;;;2.69;58.99;93250.41;2057491;69;20134;-75
2021/03/04 03:11:32;;;;;;;12.98;3.60;;;;;;;2.60;60.06;93254.44;2057871;69;20259;-74
2021/03/04 03:14:00;;;;;;;7.28;2.97;;;;;;;2.68;59.70;93255.22;2057462;69;20167;-75
2021/03/04 03:16:27;;;;;;;8.25;2.70;;;;;;;2.93;59.06;93257.59;2058048;69;20137;-75
2021/03/04 03:18:53;;;;;;;7.57;2.63;;;;;;;2.92;58.01;93262.41;2058850;69;20713;-74
2021/03/04 03:21:18;;;;;;;7.90;2.60;;;;;;;3.07;57.56;93250.66;2061377;69;20154;-74
2021/03/04 03:23:47;;;;;;;6.65;2.30;;;;;;;3.04;57.35;93246.16;2061110;69;20537;-74
2021/03/04 03:26:13;;;;;;;7.28;2.25;;;;;;;2.85;57.70;93252.00;2061108;69;20161;-74
2021/03/04 03:28:40;;;;;;;9.02;2.50;;;;;;;3.03;57.58;93247.47;2061209;69;20227;-74
2021/03/04 03:31:07;;;;;;;4.20;2.15;;;;;;;3.25;56.62;93240.50;2061000;69;20148;-74
2021/03/04 03:33:34;;;;;;;5.53;1.70;;;;;;;3.41;55.53;93239.28;2060611;69;20636;-75
2021/03/04 03:36:01;;;;;;;3.75;1.50;;;;;;;3.50;55.46;93249.88;2060286;69;20517;-75
2021/03/04 03:38:29;;;;;;;3.75;1.60;;;;;;;3.41;53.20;93242.06;2060903;69;20152;-75
2021/03/04 03:40:56;;;;;;;4.75;2.03;;;;;;;3.53;53.25;93239.69;2060953;69;20236;-76
2021/03/04 03:43:23;;;;;;;8.18;2.63;;;;;;;3.41;54.41;93244.09;2060628;69;20149;-77
2021/03/04 03:45:52;;;;;;;9.32;2.97;;;;;;;3.31;55.18;93252.22;2060590;69;20593;-77
2021/03/04 03:48:20;;;;;;;8.15;2.50;;;;;;;3.27;55.32;93244.22;2061169;69;20149;-76
2021/03/04 03:50:50;;;;;;;9.63;2.53;;;;;;;3.27;55.99;93237.94;2061086;69;20293;-77
2021/03/04 03:53:17;;;;;;;5.63;2.58;;;;;;;2.56;57.35;93234.56;2061203;69;20152;-77
2021/03/04 03:55:48;;;;;;;6.80;2.65;;;;;;;2.95;56.05;93246.69;2061121;69;20152;-76
2021/03/04 03:58:19;;;;;;;6.80;2.80;;;;;;;2.98;55.61;93249.13;2061149;69;20248;-76
2021/03/04 04:00:46;;;;;;;6.50;2.75;;;;;;;3.14;55.94;93235.28;2061171;69;20153;-77
2021/03/04 04:03:11;;;;;;;11.95;4.10;;;;;;;2.99;56.25;93238.72;2061117;69;20200;-77
2021/03/04 04:05:38;;;;;;;8.65;3.42;;;;;;;3.06;55.60;93241.53;2060999;69;20187;-77
2021/03/04 04:08:04;;;;;;;9.25;4.00;;;;;;;2.68;56.90;93240.59;2061197;69;20189;-77
2021/03/04 04:10:31;;;;;;;8.77;3.50;;;;;;;2.88;57.36;93241.81;2060619;69;20145;-76
2021/03/04 04:12:58;;;;;;;5.65;3.40;;;;;;;2.95;57.05;93235.56;2061089;69;20157;-77
2021/03/04 04:15:25;;;;;;;5.53;3.13;;;;;;;2.92;57.30;93239.44;2061107;69;20623;-77
2021/03/04 04:17:53;;;;;;;10.02;4.22;;;;;;;2.92;56.53;93226.25;2061481;69;20152;-76
2021/03/04 04:20:20;;;;;;;10.75;4.78;;;;;;;2.97;56.75;93235.75;2061573;69;20171;-77
2021/03/04 04:22:48;;;;;;;7.93;2.00;;;;;;;3.21;53.87;93226.97;2061653;69;20219;-76
2021/03/04 04:25:14;;;;;;;8.27;4.30;;;;;;;3.38;53.36;93226.44;2061136;69;20165;-76
2021/03/04 04:27:41;;;;;;;5.40;2.50;;;;;;;3.40;54.05;93223.13;2061652;69;20161;-76
2021/03/04 04:30:09;;;;;;;6.45;1.42;;;;;;;3.52;52.64;93218.69;2061104;69;20342;-76
2021/03/04 04:32:35;;;;;;;3.47;1.30;;;;;;;3.55;52.16;93218.34;2061723;69;20153;-77
2021/03/04 04:35:01;;;;;;;2.75;1.40;;;;;;;3.88;50.96;93226.22;2061564;69;20524;-76
2021/03/04 04:37:26;;;;;;;4.95;1.50;;;;;;;4.00;49.29;93224.56;2061589;69;20169;-76
2021/03/04 04:39:52;;;;;;;2.85;1.52;;;;;;;4.00;49.52;93216.94;2061676;69;20130;-76
2021/03/04 04:42:18;;;;;;;8.98;1.98;;;;;;;4.00;49.16;93221.78;2061697;69;20154;-77
2021/03/04 04:44:44;;;;;;;4.38;1.80;;;;;;;4.08;49.59;93217.69;2061595;69;20175;-77
2021/03/04 04:47:09;;;;;;;4.28;1.70;;;;;;;3.91;49.45;93225.09;2061729;69;20517;-76
2021/03/04 04:49:35;;;;;;;8.48;2.10;;;;;;;3.69;50.54;93220.97;2061047;69;20140;-76
2021/03/04 04:52:00;;;;;;;8.07;2.50;;;;;;;3.75;50.38;93221.53;2061477;69;20160;-76
2021/03/04 04:54:26;;;;;;;8.45;1.70;;;;;;;3.82;49.98;93206.91;2061528;69;20291;-77
2021/03/04 04:56:52;;;;;;;3.40;1.60;;;;;;;4.03;48.98;93207.47;2061586;69;20501;-75
2021/03/04 04:59:17;;;;;;;5.00;2.00;;;;;;;4.00;48.68;93214.16;2061667;69;20204;-76
2021/03/04 05:01:43;;;;;;;6.28;2.20;;;;;;;4.00;48.82;93210.63;2061571;69;20239;-76
2021/03/04 05:04:08;;;;;;;9.75;2.38;;;;;;;4.07;48.65;93207.09;2061546;69;20148;-76
2021/03/04 05:06:34;;;;;;;9.90;2.40;;;;;;;3.84;49.77;93212.63;2061468;69;20173;-77
2021/03/04 05:09:00;;;;;;;8.55;2.08;;;;;;;4.05;49.55;93210.44;2061011;69;20146;-76
2021/03/04 05:11:25;;;;;;;7.80;1.70;;;;;;;4.15;49.23;93205.06;2061535;69;20141;-76
2021/03/04 05:13:51;;;;;;;9.55;3.38;;;;;;;4.00;50.16;93203.00;2061646;69;20513;-77
2021/03/04 05:16:17;;;;;;;7.05;3.17;;;;;;;3.65;51.54;93199.06;2061674;69;20156;-76
2021/03/04 05:18:42;;;;;;;9.02;3.90;;;;;;;3.54;51.63;93205.72;2061531;69;20494;-76
2021/03/04 05:21:08;;;;;;;10.40;4.13;;;;;;;3.59;51.99;93206.13;2061446;69;20141;-77
2021/03/04 05:23:34;;;;;;;8.60;4.32;;;;;;;3.68;52.60;93200.75;2060981;69;20227;-76
2021/03/04 05:26:00;;;;;;;9.77;3.63;;;;;;;3.41;53.23;93202.34;2061506;69;20146;-76
2021/03/04 05:28:26;;;;;;;7.72;3.15;;;;;;;3.44;52.38;93204.78;2061306;69;20157;-77
2021/03/04 05:30:52;;;;;;;18.08;4.93;;;;;;;3.33;53.63;93193.22;2061563;69;20143;-77
2021/03/04 05:33:19;;;;;;;12.65;4.68;;;;;;;3.57;52.72;93201.06;2061498;69;20573;-77
2021/03/04 05:35:46;;;;;;;9.07;4.25;;;;;;;3.62;52.57;93194.63;2061379;69;20141;-77
2021/03/04 05:38:11;;;;;;;8.43;3.50;;;;;;;3.77;51.64;93194.63;2061528;69;20141;-77
2021/03/04 05:40:37;;;;;;;11.43;4.10;;;;;;;3.61;51.44;93193.09;2061487;69;20579;-76
2021/03/04 05:43:04;;;;;;;8.95;4.05;;;;;;;3.95;49.94;93194.84;2061484;69;20596;-76
2021/03/04 05:45:30;;;;;;;7.78;2.58;;;;;;;4.25;48.25;93177.38;2061588;69;20173;-76
2021/03/04 05:47:57;;;;;;;12.13;6.13;;;;;;;3.75;51.10;93186.06;2061499;69;20141;-76
2021/03/04 05:50:26;;;;;;;23.35;7.13;;;;;;;3.43;52.63;93183.78;2061360;69;20580;-77
2021/03/04 05:53:12;;;;;;;11.13;6.15;;;;;;;3.65;53.24;93178.81;2061470;69;20153;-77
2021/03/04 05:55:38;;;;;;;12.02;5.35;;;;;;;3.46;53.76;93173.59;2061549;69;20232;-77
2021/03/04 05:58:05;;;;;;;11.88;5.22;;;;;;;3.69;52.72;93173.63;2061425;69;20252;-76
2021/03/04 06:00:31;;;;;;;24.52;9.68;;;;;;;3.60;52.58;93172.13;2061393;69;20617;-76
2021/03/04 06:02:58;;;;;;;34.72;14.68;;;;;;;3.78;52.82;93167.53;2060881;69;20153;-76
2021/03/04 06:05:25;;;;;;;23.23;9.10;;;;;;;3.51;53.29;93178.25;2061282;69;20683;-77
2021/03/04 06:07:51;;;;;;;26.30;8.30;;;;;;;3.68;53.64;93166.59;2061407;69;20145;-76
2021/03/04 06:10:17;;;;;;;24.25;8.68;;;;;;;3.67;53.60;93165.13;2061392;69;20141;-77
2021/03/04 06:12:43;;;;;;;20.23;10.27;;;;;;;3.72;53.66;93164.94;2061438;69;20617;-76
2021/03/04 06:15:10;;;;;;;19.92;7.88;;;;;;;3.49;53.95;93164.88;2061597;69;20141;-77
2021/03/04 06:17:36;;;;;;;33.22;12.27;;;;;;;3.37;54.57;93165.78;2061462;69;20156;-76
2021/03/04 06:20:07;;;;;;;47.35;14.70;;;;;;;3.37;54.87;93158.16;2061279;69;20207;-77
2021/03/04 06:22:35;;;;;;;33.60;13.38;;;;;;;3.64;54.13;93161.38;2061405;69;20137;-77
2021/03/04 06:25:08;;;;;;;35.03;12.27;;;;;;;3.60;53.79;93163.03;2061347;69;20612;-76
2021/03/04 06:27:34;;;;;;;;;;;;;;;3.76;54.34;93165.31;2061472;69;20142;-77
2021/03/04 06:30:06;;;;;;;41.20;11.57;;;;;;;3.95;53.99;93167.00;2061474;69;20097;-76
2021/03/04 06:32:31;;;;;;;23.23;9.30;;;;;;;4.14;51.70;93161.03;2061388;69;20134;-77
2021/03/04 06:35:13;;;;;;;33.80;12.25;;;;;;;3.90;53.38;93167.91;2061406;69;20285;-75
2021/03/04 06:37:44;;;;;;;27.52;11.93;;;;;;;4.04;53.84;93163.66;2061340;69;20137;-77
2021/03/04 06:40:24;;;;;;;23.35;10.73;;;;;;;4.13;53.45;93159.56;2061362;69;20165;-76
2021/03/04 06:42:51;;;;;;;20.15;8.95;;;;;;;4.03;54.08;93164.94;2061351;69;20137;-76
2021/03/04 06:45:26;;;;;;;27.83;11.65;;;;;;;3.80;54.53;93173.28;2061313;69;20292;-77
2021/03/04 06:48:11;;;;;;;27.02;11.05;;;;;;;4.16;53.72;93167.53;2061446;69;20133;-76
2021/03/04 06:50:39;;;;;;;30.38;12.10;;;;;;;4.06;54.43;93156.19;2061176;69;20133;-77
2021/03/04 06:53:22;;;;;;;34.20;13.57;;;;;;;4.21;53.49;93154.69;2061283;69;20153;-76
2021/03/04 06:56:02;;;;;;;32.03;11.88;;;;;;;4.43;53.22;93155.97;2061387;69;20149;-76
2021/03/04 06:58:31;;;;;;;27.52;9.48;;;;;;;4.61;52.49;93149.25;2061443;69;20632;-77
2021/03/04 07:01:07;;;;;;;18.05;7.40;;;;;;;4.72;52.30;93151.66;2061423;69;20533;-77
2021/03/04 07:03:41;;;;;;;17.25;8.15;;;;;;;4.73;51.08;93150.34;2061277;69;20145;-77
2021/03/04 07:06:11;;;;;;;22.40;8.35;;;;;;;4.84;51.32;93151.97;2061172;69;20157;-77
2021/03/04 07:08:39;;;;;;;22.75;7.93;;;;;;;4.82;50.33;93149.03;2061322;69;20591;-77
2021/03/04 07:11:06;;;;;;;15.30;6.75;;;;;;;5.09;50.96;93143.72;2061257;69;20188;-77
2021/03/04 07:13:34;;;;;;;38.90;11.48;;;;;;;4.67;52.32;93149.06;2061251;69;20147;-77
2021/03/04 07:16:08;;;;;;;52.45;13.20;;;;;;;4.82;52.92;93137.88;2061218;69;20137;-77
2021/03/04 07:18:44;;;;;;;43.97;12.63;;;;;;;4.82;53.69;93144.19;2061246;69;20161;-77
2021/03/04 07:21:12;;;;;;;44.30;11.80;;;;;;;4.66;53.66;93144.78;2061115;69;20537;-77
2021/03/04 07:23:42;;;;;;;37.90;12.38;;;;;;;4.87;53.44;93136.19;2061221;69;20152;-77
2021/03/04 07:26:09;;;;;;;40.30;12.57;;;;;;;4.86;54.42;93143.81;2061214;69;20736;-77
2021/03/04 07:28:37;;;;;;;30.23;11.23;;;;;;;4.99;53.33;93140.75;2061199;69;20631;-77
2021/03/04 07:31:04;;;;;;;33.17;12.10;;;;;;;5.26;53.11;93143.81;2061243;69;20145;-77
2021/03/04 07:33:30;;;;;;;34.00;11.73;;;;;;;5.42;52.55;93140.94;2061241;69;20153;-77
2021/03/04 07:35:56;;;;;;;38.13;10.85;;;;;;;5.47;53.05;93128.81;2061053;69;20168;-77
2021/03/04 07:38:26;;;;;;;43.05;12.95;;;;;;;4.79;53.44;93131.34;2058222;69;20237;-77
2021/03/04 07:41:07;;;;;;;53.33;14.32;;;;;;;4.92;53.36;93135.22;2061415;69;20153;-76
2021/03/04 07:43:47;;;;;;;43.85;12.02;;;;;;;5.51;52.44;93138.28;2060995;69;20211;-77
2021/03/04 07:46:43;;;;;;;54.40;14.35;;;;;;;5.52;52.07;93134.19;2061668;69;20144;-77
2021/03/04 07:49:09;;;;;;;46.97;13.48;;;;;;;5.60;52.27;93131.34;2061681;69;20158;-77
2021/03/04 07:51:44;;;;;;;56.53;13.90;;;;;;;5.51;52.96;93134.75;2061449;69;20333;-77
2021/03/04 07:54:11;;;;;;;53.05;14.00;;;;;;;5.42;52.71;93135.38;2062155;69;20147;-78
2021/03/04 07:56:37;;;;;;;53.50;13.65;;;;;;;5.62;52.39;93128.72;2062253;69;20145;-76
2021/03/04 07:59:15;;;;;;;54.47;14.15;;;;;;;5.94;51.85;93127.22;2062016;69;20192;-77
2021/03/04 08:01:43;;;;;;;56.25;14.50;;;;;;;6.12;51.45;93131.53;2062031;69;20150;-76
2021/03/04 08:04:22;;;;;;;46.15;14.35;;;;;;;6.29;51.07;93126.00;2062221;69;20237;-77
2021/03/04 08:06:55;;;;;;;52.50;14.40;;;;;;;6.36;50.19;93116.03;2061874;69;20158;-77
2021/03/04 08:09:34;;;;;;;43.55;13.35;;;;;;;6.34;48.96;93111.03;2062152;69;20156;-77
2021/03/04 08:12:06;;;;;;;47.03;12.63;;;;;;;6.30;48.90;93109.97;2062119;69;20181;-77
2021/03/04 08:14:33;;;;;;;54.63;13.25;;;;;;;6.85;49.24;93109.56;2062043;69;20151;-77
2021/03/04 08:16:58;;;;;;;46.45;14.77;;;;;;;7.14;48.34;93109.03;2064292;69;20148;-77
2021/03/04 08:19:33;;;;;;;48.63;12.68;;;;;;;7.10;48.02;93105.91;2061584;69;20162;-77
2021/03/04 08:22:08;;;;;;;51.08;14.57;;;;;;;7.53;47.03;93107.22;2061846;69;20141;-77
2021/03/04 08:24:38;;;;;;;50.35;17.58;;;;;;;7.79;46.54;93108.53;2062101;69;20201;-78
2021/03/04 08:27:08;;;;;;;63.35;18.45;;;;;;;8.01;46.34;93103.88;2062046;69;20168;-77
2021/03/04 08:29:35;;;;;;;36.83;13.00;;;;;;;7.27;46.23;93099.53;2061981;69;20169;-77
2021/03/04 08:32:03;;;;;;;42.80;12.68;;;;;;;7.59;47.32;93104.88;2062061;69;20631;-77
2021/03/04 08:34:37;;;;;;;39.75;10.85;;;;;;;8.06;46.94;93105.69;2061893;69;20156;-77
2021/03/04 08:37:03;;;;;;;31.38;10.07;;;;;;;8.36;45.13;93092.47;2061872;69;20177;-77
2021/03/04 08:39:31;;;;;;;24.73;8.57;;;;;;;8.49;43.66;93102.59;2061954;69;20529;-77
2021/03/04 08:42:01;;;;;;;31.20;11.77;;;;;;;8.00;44.53;93091.19;2061932;69;20208;-77
2021/03/04 08:44:27;;;;;;;45.47;15.80;;;;;;;8.15;44.41;93090.97;2061885;69;20141;-77
2021/03/04 08:46:52;;;;;;;32.75;15.38;;;;;;;8.42;43.11;93086.59;2062056;69;20125;-77
2021/03/04 08:49:20;;;;;;;24.83;11.82;;;;;;;8.92;43.22;93084.00;2062024;69;20153;-77
2021/03/04 08:51:46;;;;;;;30.05;9.15;;;;;;;9.32;41.58;93077.03;2061800;69;20129;-82
2021/03/04 08:54:28;;;;;;;21.38;8.82;;;;;;;9.29;40.80;93081.00;2062083;69;20157;-78
2021/03/04 08:57:05;;;;;;;23.37;9.67;;;;;;;9.19;39.14;93083.84;2061946;69;20141;-78
2021/03/04 08:59:32;;;;;;;16.35;7.80;;;;;;;9.28;38.61;93073.91;2061438;69;20161;-78
2021/03/04 09:01:59;;;;;;;18.55;8.20;;;;;;;9.95;38.65;93075.81;2061889;69;20141;-78
2021/03/04 09:04:26;;;;;;;20.63;8.38;;;;;;;9.84;39.17;93062.38;2061638;69;20173;-78
2021/03/04 09:06:52;;;;;;;16.35;6.82;;;;;;;9.49;37.57;93062.06;2061694;69;20141;-79
2021/03/04 09:09:23;;;;;;;19.60;7.30;;;;;;;9.90;37.64;93055.09;2061857;69;20232;-79
2021/03/04 09:11:49;;;;;;;21.27;7.03;;;;;;;10.30;37.02;93053.56;2062003;69;20152;-78
2021/03/04 09:14:16;;;;;;;22.23;7.03;;;;;;;10.71;36.56;93049.91;2061884;69;20180;-79
2021/03/04 09:16:44;;;;;;;21.73;8.57;;;;;;;10.54;37.06;93054.50;2062013;69;20141;-81
2021/03/04 09:19:30;;;;;;;15.77;6.97;;;;;;;10.18;36.80;93050.66;2061864;69;20192;-79
2021/03/04 09:22:00;;;;;;;62.85;34.63;;;;;;;9.91;36.68;93048.13;2061914;69;20145;-76
2021/03/04 09:24:27;;;;;;;90.93;53.38;;;;;;;10.01;36.79;93038.91;2062006;69;20149;-81
2021/03/04 09:26:53;;;;;;;20.25;6.22;;;;;;;10.30;35.69;93039.50;2061849;69;20240;-79
2021/03/04 09:29:19;;;;;;;28.17;12.88;;;;;;;10.49;36.05;93037.91;2061828;69;20145;-78
2021/03/04 09:31:52;;;;;;;21.85;9.02;;;;;;;10.66;36.00;93034.84;2061764;69;20227;-77
2021/03/04 09:34:18;;;;;;;16.63;6.70;;;;;;;10.86;35.71;93029.81;2061777;69;20141;-77
2021/03/04 09:36:44;;;;;;;24.23;11.02;;;;;;;10.85;35.62;93028.31;2061764;69;20510;-78
2021/03/04 09:39:09;;;;;;;28.88;15.43;;;;;;;11.20;35.88;93031.25;2061815;69;20733;-78
2021/03/04 09:41:35;;;;;;;17.55;8.75;;;;;;;11.10;35.65;93025.72;2061820;69;20189;-78
2021/03/04 09:44:03;;;;;;;17.70;8.70;;;;;;;11.58;35.49;93030.13;2061806;69;20155;-78
2021/03/04 09:46:33;;;;;;;13.20;5.20;;;;;;;11.34;34.88;93032.16;2061831;69;20160;-78
2021/03/04 09:49:09;;;;;;;11.90;5.22;;;;;;;11.67;34.79;93022.91;2061825;69;20149;-78
2021/03/04 09:51:37;;;;;;;15.30;4.05;;;;;;;11.61;33.91;93019.72;2061661;69;20169;-78
2021/03/04 09:54:03;;;;;;;14.48;4.85;;;;;;;11.95;34.18;93013.38;2061249;69;20146;-78
2021/03/04 09:56:29;;;;;;;17.20;3.63;;;;;;;11.26;33.54;93005.53;2061913;69;20201;-78
2021/03/04 09:58:54;;;;;;;13.45;4.55;;;;;;;11.89;34.01;93012.28;2061810;69;20268;-78
2021/03/04 10:01:34;;;;;;;12.90;4.25;;;;;;;12.50;33.74;93004.63;2061777;69;20148;-75
2021/03/04 10:04:07;;;;;;;8.93;3.90;;;;;;;13.13;32.62;92999.75;2061709;69;20137;-75
2021/03/04 10:06:33;;;;;;;;;;;;;;;13.61;32.28;92995.34;2061720;69;20229;-77
2021/03/04 10:08:59;;;;;;;11.88;3.80;;;;;;;13.35;32.04;92993.91;2061747;69;20087;-76
2021/03/04 10:11:28;;;;;;;8.98;3.55;;;;;;;13.27;31.12;92994.19;2061751;69;20517;-77
2021/03/04 10:13:55;;;;;;;9.55;2.90;;;;;;;13.29;30.48;92982.25;2061903;69;20141;-78
2021/03/04 10:16:20;;;;;;;9.25;3.30;;;;;;;13.74;30.83;92976.91;2061751;69;20153;-77
2021/03/04 10:18:50;;;;;;;9.82;3.47;;;;;;;13.70;31.34;92963.31;2061839;69;20145;-75
2021/03/04 10:21:18;;;;;;;8.23;3.65;;;;;;;13.26;31.38;92963.72;2061648;69;20683;-77
2021/03/04 10:23:47;;;;;;;10.40;3.65;;;;;;;13.50;30.71;92961.47;2058601;69;20157;-76
2021/03/04 10:26:13;;;;;;;10.20;3.08;;;;;;;12.60;31.04;92954.41;2058094;69;20161;-76
2021/03/04 10:28:39;;;;;;;10.48;3.33;;;;;;;12.82;31.62;92954.91;2058182;69;20598;-78
2021/03/04 10:31:05;;;;;;;6.32;3.03;;;;;;;11.80;31.91;92953.88;2058195;69;20164;-78
2021/03/04 10:33:30;;;;;;;11.70;3.70;;;;;;;11.93;32.31;92954.03;2058301;69;20146;-79
2021/03/04 10:35:56;;;;;;;7.82;3.17;;;;;;;11.86;32.38;92954.28;2058106;69;20172;-78
2021/03/04 10:38:22;;;;;;;14.68;6.13;;;;;;;12.04;32.82;92957.44;2058193;69;20134;-78
2021/03/04 10:40:49;;;;;;;8.30;3.00;;;;;;;12.30;32.81;92952.63;2058234;69;20149;-78
2021/03/04 10:43:15;;;;;;;8.68;3.05;;;;;;;13.48;30.78;92939.47;2058202;69;20269;-78
2021/03/04 10:45:40;;;;;;;17.70;3.58;;;;;;;13.60;30.36;92940.09;2058178;69;20662;-79
2021/03/04 10:48:06;;;;;;;12.38;3.60;;;;;;;13.68;30.24;92940.56;2058275;69;20157;-78
2021/03/04 10:50:32;;;;;;;9.20;3.15;;;;;;;14.93;29.06;92949.69;2058207;69;20145;-76
2021/03/04 10:52:58;;;;;;;15.00;3.92;;;;;;;15.12;28.79;92939.97;2058157;69;20141;-76
2021/03/04 10:55:24;;;;;;;6.22;3.17;;;;;;;15.41;28.41;92939.94;2058141;69;20293;-76
2021/03/04 10:57:50;;;;;;;6.80;3.13;;;;;;;15.13;28.31;92924.44;2058197;69;20133;-80
2021/03/04 11:00:16;;;;;;;12.10;3.40;;;;;;;15.49;27.85;92923.31;2058245;69;20693;-80
2021/03/04 11:02:41;;;;;;;10.68;3.38;;;;;;;14.79;28.63;92927.06;2058131;69;20149;-79
2021/03/04 11:05:09;;;;;;;10.18;2.83;;;;;;;16.14;27.69;92921.94;2057960;69;20166;-79
2021/03/04 11:07:34;;;;;;;6.95;2.78;;;;;;;17.06;26.14;92914.44;2058313;69;20233;-79
2021/03/04 11:10:02;;;;;;;12.88;5.30;;;;;;;15.97;25.14;92915.53;2058263;69;20681;-77
2021/03/04 11:12:28;;;;;;;9.98;5.20;;;;;;;15.20;26.13;92907.06;2058368;69;20276;-79
2021/03/04 11:14:54;;;;;;;16.45;8.32;;;;;;;16.31;25.69;92914.84;2058281;69;20146;-78
2021/03/04 11:17:19;;;;;;;9.93;3.58;;;;;;;15.52;25.47;92905.00;2058358;69;20236;-80
2021/03/04 11:19:45;;;;;;;11.63;5.00;;;;;;;16.67;25.72;92901.44;2058517;69;20185;-80
2021/03/04 11:22:10;;;;;;;7.22;3.78;;;;;;;17.63;25.40;92886.06;2058306;69;20144;-77
2021/03/04 11:24:36;;;;;;;13.75;7.82;;;;;;;18.33;24.05;92883.66;2058507;69;20150;-81
2021/03/04 11:27:03;;;;;;;9.85;4.35;;;;;;;16.55;25.42;92883.91;2058529;69;20146;-79
2021/03/04 11:29:28;;;;;;;7.72;2.85;;;;;;;16.59;24.91;92875.56;2059069;69;20148;-77
2021/03/04 11:31:55;;;;;;;14.30;9.20;;;;;;;14.55;27.04;92869.22;2058751;69;20168;-77
2021/03/04 11:34:21;;;;;;;11.32;5.60;;;;;;;14.14;27.07;92855.84;2058611;69;20145;-76
2021/03/04 11:36:46;;;;;;;8.20;2.10;;;;;;;16.59;24.86;92855.66;2058673;69;20525;-78
2021/03/04 11:39:12;;;;;;;4.32;1.90;;;;;;;16.90;23.84;92855.50;2058879;69;20517;-77